Arcadia — ZCDN2 — position and weather

sailwx.info

Track history (hours):
 
Tides and Currents Weather Stations Pressure Air Temp Water Temp Dewpoint Dewpoint Depression Visibility Wind Speed Wind Dir Waves Ship Positions

Arcadia

Last reported at 2017-Nov-22 04:00 UTC. Time now 2017-Nov-22 09:26 UTC.
Position N 50°30' W 000°42'.

Length 285.1 m; beam 32.2 m; draft 8 m.

Type: Passenger vessel. MMSI: 310459000.

Wind from 200 at 30 knots

Barometer 1005.1 mb
Air temperature 14.5 ° C
Visibility: greater than 10.8 NM
Dewpoint 10.7 ° C
Water temperature 12.0 ° C

Date/timePositionNaut miles runAvg speedWind from/ knotsBaromVisibWave heightAir tempDewpointWater temp
2017-Nov-22 04:00N 50°30' W 000°42'19711.6 200 / 301005.110.8 14.510.712.0
2017-Nov-21 11:00N 52°24' E 003°36'26 0.7 270 / 301011.2 5.4 12.510.610.0
2017-Nov-19 23:00N 52°06' E 003°06'33 9.9 270 / 191027.810.8 8.0 0.510.0
2017-Nov-19 19:43N 51°37' E 002°43'413.9
2017-Nov-19 19:27N 51°33' E 002°42'614.5
2017-Nov-19 19:00N 51°27' E 002°42'4 7.3
2017-Nov-19 18:30N 51°24' E 002°45'611.4
2017-Nov-19 18:01N 51°25' E 002°54'815.3
2017-Nov-19 17:30N 51°24' E 003°06'510.4
2017-Nov-19 17:01N 51°21' E 003°12'0 0.6
2017-Nov-19 16:25N 51°20' E 003°12'0 0.0
2017-Nov-19 15:55N 51°20' E 003°12'0 0.0
2017-Nov-19 15:25N 51°20' E 003°12'0 0.0
2017-Nov-19 14:55N 51°20' E 003°12'0 0.0
2017-Nov-19 14:25N 51°20' E 003°12'0 0.0
2017-Nov-19 13:43N 51°20' E 003°12'0 0.0
2017-Nov-19 13:25N 51°20' E 003°12'0 0.0
2017-Nov-19 12:55N 51°20' E 003°12'0 0.0
2017-Nov-19 12:25N 51°20' E 003°12'0 0.0
2017-Nov-19 11:58N 51°20' E 003°12'0 0.0
2017-Nov-19 11:28N 51°20' E 003°12'0 0.0
2017-Nov-19 10:58N 51°20' E 003°12'0 0.0
2017-Nov-19 10:25N 51°20' E 003°12'0 0.0
2017-Nov-19 09:58N 51°20' E 003°12'0 0.0
2017-Nov-19 09:28N 51°20' E 003°12'0 0.0
2017-Nov-19 08:58N 51°20' E 003°12'0 0.0
2017-Nov-19 08:28N 51°20' E 003°12'0 0.0
2017-Nov-19 07:58N 51°20' E 003°12'0 0.0
2017-Nov-19 07:28N 51°20' E 003°12'0 0.0
2017-Nov-19 06:55N 51°20' E 003°12'0 0.0
2017-Nov-19 06:28N 51°20' E 003°12'1 1.5
2017-Nov-19 06:00N 51°21' E 003°12'611.5
2017-Nov-19 05:30N 51°24' E 003°05'816.4
2017-Nov-19 05:00N 51°22' E 002°52'612.0
2017-Nov-19 04:30N 51°22' E 002°42'612.9
2017-Nov-19 04:00N 51°22' E 002°32'612.9
2017-Nov-19 03:30N 51°19' E 002°23'713.7
2017-Nov-19 03:00N 51°15' E 002°14'6370.5
2017-Nov-19 03:00N 51°12' E 002°06'1 2.9 310 / 281018.610.8 8.5 1.111.0
2017-Nov-19 02:30N 51°12' E 002°04'714.9
2017-Nov-19 02:00N 51°08' E 001°53'815.4
2017-Nov-19 01:31N 51°04' E 001°43'815.8
2017-Nov-19 01:00N 50°59' E 001°34'815.3
2017-Nov-19 00:30N 50°52' E 001°27'1936.9
2017-Nov-19 00:00N 50°36' E 001°12'3914.7 340 / 301020.210.8 10.0 4.411.0
2017-Nov-18 21:21N 50°22' E 000°16'820.4
2017-Nov-18 20:58N 50°21' E 000°03'920.2
2017-Nov-18 20:31N 50°25' W 000°10'1120.1
2017-Nov-18 19:59N 50°30' W 000°24'1021.3
2017-Nov-18 19:30N 50°33' W 000°40'1021.1
2017-Nov-18 19:00N 50°38' W 000°54'713.1
2017-Nov-18 18:31N 50°43' W 001°00'918.8
2017-Nov-18 18:01N 50°46' W 001°15'510.0
2017-Nov-18 17:30N 50°50' W 001°19'5 9.0
2017-Nov-18 16:59N 50°53' W 001°24'1 2.4
2017-Nov-18 16:29N 50°54' W 001°26'0 0.0
2017-Nov-18 15:53N 50°54' W 001°26'0 0.0
2017-Nov-18 15:29N 50°54' W 001°26'0 0.0
2017-Nov-18 14:59N 50°54' W 001°26'0 0.0
2017-Nov-18 14:29N 50°54' W 001°26'0 0.0
2017-Nov-18 13:56N 50°54' W 001°26'0 0.0
2017-Nov-18 13:29N 50°54' W 001°26'0 0.0
2017-Nov-18 12:59N 50°54' W 001°26'0 0.0
2017-Nov-18 12:29N 50°54' W 001°26'0 0.0
2017-Nov-18 11:56N 50°54' W 001°26'0 0.0
2017-Nov-18 11:29N 50°54' W 001°26'0 0.0
2017-Nov-18 10:59N 50°54' W 001°26'0 0.0
2017-Nov-18 10:26N 50°54' W 001°26'0 0.0
2017-Nov-18 09:59N 50°54' W 001°26'0 0.0
2017-Nov-18 09:23N 50°54' W 001°26'0 0.0
2017-Nov-18 08:59N 50°54' W 001°26'0 0.0
2017-Nov-18 08:26N 50°54' W 001°26'0 0.0
2017-Nov-18 07:56N 50°54' W 001°26'0 0.0
2017-Nov-18 07:29N 50°54' W 001°26'0 0.0
2017-Nov-18 07:01N 50°54' W 001°26'1 1.1
2017-Nov-18 06:24N 50°54' W 001°25'3 7.2
2017-Nov-18 06:00N 50°52' W 001°22'5 9.2
2017-Nov-18 05:30N 50°48' W 001°18'612.4
2017-Nov-18 05:00N 50°46' W 001°09'816.9
2017-Nov-18 04:30N 50°41' W 000°57'5 9.4
2017-Nov-18 04:00N 50°37' W 000°54'611.5
2017-Nov-18 03:30N 50°35' W 000°46'713.1
2017-Nov-18 03:00N 50°34' W 000°36'5378.5
2017-Nov-18 03:00N 50°30' W 000°42'1220.6 300 / 141026.410.8 9.0 0.313.0
2017-Nov-18 02:26N 50°32' W 000°24'613.2
2017-Nov-18 02:00N 50°32' W 000°15'714.1
2017-Nov-18 01:30N 50°31' W 000°04'815.0
2017-Nov-18 01:00N 50°32' E 000°07'917.2
2017-Nov-18 00:30N 50°34' E 000°21'816.9
2017-Nov-18 00:00N 50°38' E 000°32'816.4
2017-Nov-17 23:30N 50°42' E 000°44'815.8
2017-Nov-17 23:00N 50°46' E 000°55'815.5
2017-Nov-17 22:30N 50°50' E 001°05'915.2
2017-Nov-17 21:55N 50°55' E 001°17'815.6
2017-Nov-17 21:24N 51°01' E 001°26'819.8
2017-Nov-17 21:00N 51°06' E 001°34'1020.7
2017-Nov-17 20:30N 51°13' E 001°47'1121.4
2017-Nov-17 20:00N 51°22' E 001°55'816.2
2017-Nov-17 19:30N 51°23' E 002°08'918.7
2017-Nov-17 19:00N 51°21' E 002°23'1019.4
2017-Nov-17 18:29N 51°22' E 002°40'510.5
2017-Nov-17 18:00N 51°22' E 002°48'918.6
2017-Nov-17 17:30N 51°24' E 003°02'714.4
2017-Nov-17 17:00N 51°21' E 003°12'1 1.6
2017-Nov-17 16:28N 51°20' E 003°12'0 0.0
2017-Nov-17 15:58N 51°20' E 003°12'0 0.0
2017-Nov-17 15:28N 51°20' E 003°12'0 0.0
2017-Nov-17 14:58N 51°20' E 003°12'0 0.0
2017-Nov-17 14:29N 51°20' E 003°12'0 0.0
2017-Nov-17 13:58N 51°20' E 003°12'0 0.0
2017-Nov-17 13:29N 51°20' E 003°12'0 0.0
2017-Nov-17 12:59N 51°20' E 003°12'0 0.0
2017-Nov-17 12:29N 51°20' E 003°12'0 0.0
2017-Nov-17 11:59N 51°20' E 003°12'0 0.0
2017-Nov-17 11:28N 51°20' E 003°12'0 0.0
2017-Nov-17 10:58N 51°20' E 003°12'0 0.0
2017-Nov-17 10:28N 51°20' E 003°12'0 0.0
2017-Nov-17 09:59N 51°20' E 003°12'0 0.0
2017-Nov-17 09:28N 51°20' E 003°12'0 0.0
2017-Nov-17 08:59N 51°20' E 003°12'0 0.0
2017-Nov-17 08:29N 51°20' E 003°12'0 0.0
2017-Nov-17 07:58N 51°20' E 003°12'0 0.0
2017-Nov-17 07:29N 51°20' E 003°12'0 0.0
2017-Nov-17 06:59N 51°20' E 003°12'0 0.0
2017-Nov-17 06:29N 51°20' E 003°12'2 3.6
2017-Nov-17 06:01N 51°22' E 003°11'612.5
2017-Nov-17 05:31N 51°24' E 003°02'816.2
2017-Nov-17 05:00N 51°21' E 002°50'9 4.4
2017-Nov-17 03:00N 51°24' E 002°36'2 2.7 050 / 141027.110.8 10.5 1.111.1
2017-Nov-17 02:08N 51°25' E 002°39'0 0.1
2017-Nov-17 01:59N 51°25' E 002°39'0 0.0
2017-Nov-17 01:29N 51°25' E 002°39'0 0.1
2017-Nov-17 00:59N 51°25' E 002°39'0 0.0
2017-Nov-17 00:29N 51°25' E 002°39'0 0.0
2017-Nov-16 23:59N 51°25' E 002°39'0 0.0
2017-Nov-16 23:29N 51°25' E 002°39'0 0.0
2017-Nov-16 22:53N 51°25' E 002°39'0 0.0
2017-Nov-16 22:23N 51°25' E 002°39'0 0.1
2017-Nov-16 21:35N 51°25' E 002°39'0 0.0
2017-Nov-16 17:26N 51°25' E 002°39'2 1.5
2017-Nov-16 16:15N 51°25' E 002°37'313.2
2017-Nov-16 16:00N 51°23' E 002°32'713.4
2017-Nov-16 15:31N 51°20' E 002°23'612.0
2017-Nov-16 15:01N 51°18' E 002°14'8459.5
2017-Nov-16 15:00N 51°12' E 002°06'3 5.9 200 / 141022.710.8 13.510.812.0
2017-Nov-16 14:31N 51°15' E 002°06'612.3
2017-Nov-16 14:00N 51°11' E 001°58'611.8
2017-Nov-16 13:30N 51°07' E 001°50'612.0
2017-Nov-16 13:00N 51°04' E 001°43'611.8
2017-Nov-16 12:30N 50°60' E 001°36'611.7
2017-Nov-16 12:00N 50°56' E 001°29'611.5
2017-Nov-16 11:30N 50°50' E 001°26'1019.1
2017-Nov-16 11:00N 50°42' E 001°18'53 9.8 310 / 51026.410.8 12.010.112.0
2017-Nov-16 05:36N 50°18' E 000°04'111.1
2017-Nov-16 05:28N 50°17' E 000°02'510.9
2017-Nov-16 04:58N 50°16' W 000°06'610.9
2017-Nov-16 04:25N 50°15' W 000°16'1611.1
2017-Nov-16 03:00N 50°06' W 000°36'15 9.5 260 / 141023.510.8 14.010.213.0
2017-Nov-16 01:26N 50°07' W 000°59'4 8.5
2017-Nov-16 01:00N 50°07' W 001°05'4 8.7
2017-Nov-16 00:30N 50°08' W 001°11'4 8.8
2017-Nov-16 00:00N 50°09' W 001°18'4 7.9
2017-Nov-15 23:30N 50°11' W 001°24'4 7.8
2017-Nov-15 23:00N 50°13' W 001°28'8492.4
2017-Nov-15 23:00N 50°06' W 001°24'1326.1 270 / 101027.010.8 14.5 9.713.0
2017-Nov-15 22:30N 50°19' W 001°27'1710.8
2017-Nov-15 20:58N 50°31' W 001°09'8 9.5
2017-Nov-15 20:06N 50°36' W 000°60'110.5
2017-Nov-15 20:00N 50°37' W 000°59'5 9.7
2017-Nov-15 19:31N 50°42' W 000°58'611.8
2017-Nov-15 19:01N 50°45' W 001°06'3 5.8
2017-Nov-15 18:30N 50°46' W 001°11'5 9.5
2017-Nov-15 18:00N 50°47' W 001°18'4 8.8
2017-Nov-15 17:30N 50°51' W 001°20'5 8.5
2017-Nov-15 16:58N 50°54' W 001°25'0 0.5
2017-Nov-15 16:27N 50°54' W 001°26'0 0.0
2017-Nov-15 15:57N 50°54' W 001°26'0 0.0
2017-Nov-15 15:27N 50°54' W 001°26'0 0.0
2017-Nov-15 14:57N 50°54' W 001°26'0 0.0
2017-Nov-15 14:27N 50°54' W 001°26'0 0.0
2017-Nov-15 13:57N 50°54' W 001°26'0 0.0
2017-Nov-15 13:27N 50°54' W 001°26'0 0.0
2017-Nov-15 12:57N 50°54' W 001°26'0 0.0
2017-Nov-15 12:27N 50°54' W 001°26'0 0.0
2017-Nov-15 11:57N 50°54' W 001°26'0 0.0
2017-Nov-15 11:27N 50°54' W 001°26'0 0.0
2017-Nov-15 10:57N 50°54' W 001°26'0 0.0
2017-Nov-15 10:27N 50°54' W 001°26'0 0.0
2017-Nov-15 09:57N 50°54' W 001°26'0 0.0
2017-Nov-15 09:15N 50°54' W 001°26'0 0.0
2017-Nov-15 08:51N 50°54' W 001°26'0 0.0
2017-Nov-15 08:27N 50°54' W 001°26'0 0.0
2017-Nov-15 07:57N 50°54' W 001°26'0 0.0
2017-Nov-15 07:03N 50°54' W 001°26'0 0.0
2017-Nov-15 06:51N 50°54' W 001°26'0 0.0
2017-Nov-15 06:27N 50°54' W 001°26'0 0.0
2017-Nov-15 05:57N 50°54' W 001°26'0 0.0
2017-Nov-15 05:27N 50°54' W 001°26'0 0.0
2017-Nov-15 04:57N 50°54' W 001°26'0 0.0
2017-Nov-15 04:27N 50°54' W 001°26'0 0.0
2017-Nov-15 03:57N 50°54' W 001°26'0 0.0
2017-Nov-15 03:27N 50°54' W 001°26'0 0.0
2017-Nov-15 02:45N 50°54' W 001°26'0 0.0
2017-Nov-15 02:27N 50°54' W 001°26'0 0.0
2017-Nov-15 01:57N 50°54' W 001°26'0 0.0
2017-Nov-15 01:27N 50°54' W 001°26'0 0.0
2017-Nov-15 00:57N 50°54' W 001°26'0 0.0
2017-Nov-15 00:27N 50°54' W 001°26'0 0.0
2017-Nov-14 23:57N 50°54' W 001°26'0 0.0
2017-Nov-14 23:27N 50°54' W 001°26'0 0.0
2017-Nov-14 22:51N 50°54' W 001°26'0 0.0
2017-Nov-14 22:21N 50°54' W 001°26'0 0.0
2017-Nov-14 21:45N 50°54' W 001°26'0 0.0
2017-Nov-14 21:21N 50°54' W 001°26'0 0.0
2017-Nov-14 20:03N 50°54' W 001°26'0 0.0
2017-Nov-14 19:51N 50°54' W 001°26'0 0.0
2017-Nov-14 19:27N 50°54' W 001°26'0 0.0
2017-Nov-14 18:57N 50°54' W 001°26'0 0.0
2017-Nov-14 18:09N 50°54' W 001°26'0 0.0
2017-Nov-14 17:57N 50°54' W 001°26'0 0.0
2017-Nov-14 17:27N 50°54' W 001°26'0 0.0
2017-Nov-14 16:51N 50°54' W 001°26'0 0.0
2017-Nov-14 16:27N 50°54' W 001°26'0 0.0
2017-Nov-14 15:45N 50°54' W 001°26'0 0.0
2017-Nov-14 15:27N 50°54' W 001°26'0 0.0
2017-Nov-14 14:57N 50°54' W 001°26'0 0.0
2017-Nov-14 14:21N 50°54' W 001°26'0 0.0
2017-Nov-14 13:57N 50°54' W 001°26'0 0.0
2017-Nov-14 13:27N 50°54' W 001°26'0 0.0
2017-Nov-14 12:57N 50°54' W 001°26'0 0.0
2017-Nov-14 12:03N 50°54' W 001°26'0 0.0
2017-Nov-14 12:00N 50°54' W 001°26'0 0.0
2017-Nov-14 11:30N 50°54' W 001°26'0 0.0
2017-Nov-14 10:57N 50°54' W 001°26'0 0.1
2017-Nov-14 10:30N 50°54' W 001°26'3 3.5
2017-Nov-14 09:39N 50°52' W 001°23'213.2
2017-Nov-14 09:30N 50°51' W 001°20'5 9.2
2017-Nov-14 09:00N 50°46' W 001°18'816.6
2017-Nov-14 08:30N 50°45' W 001°06'713.3
2017-Nov-14 08:01N 50°40' W 000°58'4 6.3
2017-Nov-14 07:25N 50°38' W 001°03'1 3.3
2017-Nov-14 07:00N 50°38' W 001°01'5 9.3
2017-Nov-14 06:31N 50°37' W 000°54'713.0
2017-Nov-14 05:59N 50°36' W 000°43'613.3
2017-Nov-14 05:30N 50°35' W 000°33'713.8
2017-Nov-14 05:00N 50°34' W 000°22'714.2
2017-Nov-14 04:30N 50°32' W 000°11'714.2
2017-Nov-14 04:00N 50°32' W 000°00'714.9
2017-Nov-14 03:30N 50°35' E 000°11'815.4
2017-Nov-14 03:01N 50°37' E 000°23'10563.3
2017-Nov-14 03:00N 50°30' E 000°12'1735.3 340 / 161024.810.8 10.1 2.612.3
2017-Nov-14 02:31N 50°39' E 000°35'816.4
2017-Nov-14 02:00N 50°43' E 000°46'816.3
2017-Nov-14 01:31N 50°47' E 000°57'816.4
2017-Nov-14 01:00N 50°50' E 001°09'917.3
2017-Nov-14 00:30N 50°56' E 001°19'919.0
2017-Nov-14 00:01N 51°03' E 001°29'918.1
2017-Nov-13 23:31N 51°09' E 001°40'917.4
2017-Nov-13 23:00N 51°16' E 001°48'917.5
2017-Nov-13 22:30N 51°24' E 001°53'817.0
2017-Nov-13 22:01N 51°32' E 002°00'29314.7
2017-Nov-13 02:01N 53°52' E 009°04'612.3
2017-Nov-13 01:30N 53°53' E 009°15'815.4
2017-Nov-13 01:01N 53°47' E 009°23'714.7
2017-Nov-13 00:30N 53°41' E 009°30'612.4
2017-Nov-13 00:00N 53°36' E 009°36'510.9
2017-Nov-12 23:30N 53°34' E 009°45'5 9.2
2017-Nov-12 23:01N 53°33' E 009°52'3 6.2
2017-Nov-12 22:30N 53°33' E 009°58'0 0.4
2017-Nov-12 22:00N 53°32' E 009°58'0 0.0
2017-Nov-12 21:31N 53°32' E 009°58'0 0.0
2017-Nov-12 21:00N 53°32' E 009°58'  
Track history (hours):
 
Tides and Currents Weather Stations Pressure Air Temp Water Temp Dewpoint Dewpoint Depression Visibility Wind Speed Wind Dir Waves Ship Positions

Arcadia

Last reported at 2017-Nov-22 04:00 UTC. Time now 2017-Nov-22 09:26 UTC.
Position N 50°30' W 000°42'.

Length 285.1 m; beam 32.2 m; draft 8 m.

Type: Passenger vessel. MMSI: 310459000.

Wind from 200 at 30 knots

Barometer 1005.1 mb
Air temperature 14.5 ° C
Visibility: greater than 10.8 NM
Dewpoint 10.7 ° C
Water temperature 12.0 ° C

Date/timePositionNaut miles runAvg speedWind from/ knotsBaromVisibWave heightAir tempDewpointWater temp
2017-Nov-22 04:00N 50°30' W 000°42'19711.6 200 / 301005.110.8 14.510.712.0
2017-Nov-21 11:00N 52°24' E 003°36'26 0.7 270 / 301011.2 5.4 12.510.610.0
2017-Nov-19 23:00N 52°06' E 003°06'33 9.9 270 / 191027.810.8 8.0 0.510.0
2017-Nov-19 19:43N 51°37' E 002°43'413.9
2017-Nov-19 19:27N 51°33' E 002°42'614.5
2017-Nov-19 19:00N 51°27' E 002°42'4 7.3
2017-Nov-19 18:30N 51°24' E 002°45'611.4
2017-Nov-19 18:01N 51°25' E 002°54'815.3
2017-Nov-19 17:30N 51°24' E 003°06'510.4
2017-Nov-19 17:01N 51°21' E 003°12'0 0.6
2017-Nov-19 16:25N 51°20' E 003°12'0 0.0
2017-Nov-19 15:55N 51°20' E 003°12'0 0.0
2017-Nov-19 15:25N 51°20' E 003°12'0 0.0
2017-Nov-19 14:55N 51°20' E 003°12'0 0.0
2017-Nov-19 14:25N 51°20' E 003°12'0 0.0
2017-Nov-19 13:43N 51°20' E 003°12'0 0.0
2017-Nov-19 13:25N 51°20' E 003°12'0 0.0
2017-Nov-19 12:55N 51°20' E 003°12'0 0.0
2017-Nov-19 12:25N 51°20' E 003°12'0 0.0
2017-Nov-19 11:58N 51°20' E 003°12'0 0.0
2017-Nov-19 11:28N 51°20' E 003°12'0 0.0
2017-Nov-19 10:58N 51°20' E 003°12'0 0.0
2017-Nov-19 10:25N 51°20' E 003°12'0 0.0
2017-Nov-19 09:58N 51°20' E 003°12'0 0.0
2017-Nov-19 09:28N 51°20' E 003°12'0 0.0
2017-Nov-19 08:58N 51°20' E 003°12'0 0.0
2017-Nov-19 08:28N 51°20' E 003°12'0 0.0
2017-Nov-19 07:58N 51°20' E 003°12'0 0.0
2017-Nov-19 07:28N 51°20' E 003°12'0 0.0
2017-Nov-19 06:55N 51°20' E 003°12'0 0.0
2017-Nov-19 06:28N 51°20' E 003°12'1 1.5
2017-Nov-19 06:00N 51°21' E 003°12'611.5
2017-Nov-19 05:30N 51°24' E 003°05'816.4
2017-Nov-19 05:00N 51°22' E 002°52'612.0
2017-Nov-19 04:30N 51°22' E 002°42'612.9
2017-Nov-19 04:00N 51°22' E 002°32'612.9
2017-Nov-19 03:30N 51°19' E 002°23'713.7
2017-Nov-19 03:00N 51°15' E 002°14'6370.5
2017-Nov-19 03:00N 51°12' E 002°06'1 2.9 310 / 281018.610.8 8.5 1.111.0
2017-Nov-19 02:30N 51°12' E 002°04'714.9
2017-Nov-19 02:00N 51°08' E 001°53'815.4
2017-Nov-19 01:31N 51°04' E 001°43'815.8
2017-Nov-19 01:00N 50°59' E 001°34'815.3
2017-Nov-19 00:30N 50°52' E 001°27'1936.9
2017-Nov-19 00:00N 50°36' E 001°12'3914.7 340 / 301020.210.8 10.0 4.411.0
2017-Nov-18 21:21N 50°22' E 000°16'820.4
2017-Nov-18 20:58N 50°21' E 000°03'920.2
2017-Nov-18 20:31N 50°25' W 000°10'1120.1
2017-Nov-18 19:59N 50°30' W 000°24'1021.3
2017-Nov-18 19:30N 50°33' W 000°40'1021.1
2017-Nov-18 19:00N 50°38' W 000°54'713.1
2017-Nov-18 18:31N 50°43' W 001°00'918.8
2017-Nov-18 18:01N 50°46' W 001°15'510.0
2017-Nov-18 17:30N 50°50' W 001°19'5 9.0
2017-Nov-18 16:59N 50°53' W 001°24'1 2.4
2017-Nov-18 16:29N 50°54' W 001°26'0 0.0
2017-Nov-18 15:53N 50°54' W 001°26'0 0.0
2017-Nov-18 15:29N 50°54' W 001°26'0 0.0
2017-Nov-18 14:59N 50°54' W 001°26'0 0.0
2017-Nov-18 14:29N 50°54' W 001°26'0 0.0
2017-Nov-18 13:56N 50°54' W 001°26'0 0.0
2017-Nov-18 13:29N 50°54' W 001°26'0 0.0
2017-Nov-18 12:59N 50°54' W 001°26'0 0.0
2017-Nov-18 12:29N 50°54' W 001°26'0 0.0
2017-Nov-18 11:56N 50°54' W 001°26'0 0.0
2017-Nov-18 11:29N 50°54' W 001°26'0 0.0
2017-Nov-18 10:59N 50°54' W 001°26'0 0.0
2017-Nov-18 10:26N 50°54' W 001°26'0 0.0
2017-Nov-18 09:59N 50°54' W 001°26'0 0.0
2017-Nov-18 09:23N 50°54' W 001°26'0 0.0
2017-Nov-18 08:59N 50°54' W 001°26'0 0.0
2017-Nov-18 08:26N 50°54' W 001°26'0 0.0
2017-Nov-18 07:56N 50°54' W 001°26'0 0.0
2017-Nov-18 07:29N 50°54' W 001°26'0 0.0
2017-Nov-18 07:01N 50°54' W 001°26'1 1.1
2017-Nov-18 06:24N 50°54' W 001°25'3 7.2
2017-Nov-18 06:00N 50°52' W 001°22'5 9.2
2017-Nov-18 05:30N 50°48' W 001°18'612.4
2017-Nov-18 05:00N 50°46' W 001°09'816.9
2017-Nov-18 04:30N 50°41' W 000°57'5 9.4
2017-Nov-18 04:00N 50°37' W 000°54'611.5
2017-Nov-18 03:30N 50°35' W 000°46'713.1
2017-Nov-18 03:00N 50°34' W 000°36'5378.5
2017-Nov-18 03:00N 50°30' W 000°42'1220.6 300 / 141026.410.8 9.0 0.313.0
2017-Nov-18 02:26N 50°32' W 000°24'613.2
2017-Nov-18 02:00N 50°32' W 000°15'714.1
2017-Nov-18 01:30N 50°31' W 000°04'815.0
2017-Nov-18 01:00N 50°32' E 000°07'917.2
2017-Nov-18 00:30N 50°34' E 000°21'816.9
2017-Nov-18 00:00N 50°38' E 000°32'816.4
2017-Nov-17 23:30N 50°42' E 000°44'815.8
2017-Nov-17 23:00N 50°46' E 000°55'815.5
2017-Nov-17 22:30N 50°50' E 001°05'915.2
2017-Nov-17 21:55N 50°55' E 001°17'815.6
2017-Nov-17 21:24N 51°01' E 001°26'819.8
2017-Nov-17 21:00N 51°06' E 001°34'1020.7
2017-Nov-17 20:30N 51°13' E 001°47'1121.4
2017-Nov-17 20:00N 51°22' E 001°55'816.2
2017-Nov-17 19:30N 51°23' E 002°08'918.7
2017-Nov-17 19:00N 51°21' E 002°23'1019.4
2017-Nov-17 18:29N 51°22' E 002°40'510.5
2017-Nov-17 18:00N 51°22' E 002°48'918.6
2017-Nov-17 17:30N 51°24' E 003°02'714.4
2017-Nov-17 17:00N 51°21' E 003°12'1 1.6
2017-Nov-17 16:28N 51°20' E 003°12'0 0.0
2017-Nov-17 15:58N 51°20' E 003°12'0 0.0
2017-Nov-17 15:28N 51°20' E 003°12'0 0.0
2017-Nov-17 14:58N 51°20' E 003°12'0 0.0
2017-Nov-17 14:29N 51°20' E 003°12'0 0.0
2017-Nov-17 13:58N 51°20' E 003°12'0 0.0
2017-Nov-17 13:29N 51°20' E 003°12'0 0.0
2017-Nov-17 12:59N 51°20' E 003°12'0 0.0
2017-Nov-17 12:29N 51°20' E 003°12'0 0.0
2017-Nov-17 11:59N 51°20' E 003°12'0 0.0
2017-Nov-17 11:28N 51°20' E 003°12'0 0.0
2017-Nov-17 10:58N 51°20' E 003°12'0 0.0
2017-Nov-17 10:28N 51°20' E 003°12'0 0.0
2017-Nov-17 09:59N 51°20' E 003°12'0 0.0
2017-Nov-17 09:28N 51°20' E 003°12'0 0.0
2017-Nov-17 08:59N 51°20' E 003°12'0 0.0
2017-Nov-17 08:29N 51°20' E 003°12'0 0.0
2017-Nov-17 07:58N 51°20' E 003°12'0 0.0
2017-Nov-17 07:29N 51°20' E 003°12'0 0.0
2017-Nov-17 06:59N 51°20' E 003°12'0 0.0
2017-Nov-17 06:29N 51°20' E 003°12'2 3.6
2017-Nov-17 06:01N 51°22' E 003°11'612.5
2017-Nov-17 05:31N 51°24' E 003°02'816.2
2017-Nov-17 05:00N 51°21' E 002°50'9 4.4
2017-Nov-17 03:00N 51°24' E 002°36'2 2.7 050 / 141027.110.8 10.5 1.111.1
2017-Nov-17 02:08N 51°25' E 002°39'0 0.1
2017-Nov-17 01:59N 51°25' E 002°39'0 0.0
2017-Nov-17 01:29N 51°25' E 002°39'0 0.1
2017-Nov-17 00:59N 51°25' E 002°39'0 0.0
2017-Nov-17 00:29N 51°25' E 002°39'0 0.0
2017-Nov-16 23:59N 51°25' E 002°39'0 0.0
2017-Nov-16 23:29N 51°25' E 002°39'0 0.0
2017-Nov-16 22:53N 51°25' E 002°39'0 0.0
2017-Nov-16 22:23N 51°25' E 002°39'0 0.1
2017-Nov-16 21:35N 51°25' E 002°39'0 0.0
2017-Nov-16 17:26N 51°25' E 002°39'2 1.5
2017-Nov-16 16:15N 51°25' E 002°37'313.2
2017-Nov-16 16:00N 51°23' E 002°32'713.4
2017-Nov-16 15:31N 51°20' E 002°23'612.0
2017-Nov-16 15:01N 51°18' E 002°14'8459.5
2017-Nov-16 15:00N 51°12' E 002°06'3 5.9 200 / 141022.710.8 13.510.812.0
2017-Nov-16 14:31N 51°15' E 002°06'612.3
2017-Nov-16 14:00N 51°11' E 001°58'611.8
2017-Nov-16 13:30N 51°07' E 001°50'612.0
2017-Nov-16 13:00N 51°04' E 001°43'611.8
2017-Nov-16 12:30N 50°60' E 001°36'611.7
2017-Nov-16 12:00N 50°56' E 001°29'611.5
2017-Nov-16 11:30N 50°50' E 001°26'1019.1
2017-Nov-16 11:00N 50°42' E 001°18'53 9.8 310 / 51026.410.8 12.010.112.0
2017-Nov-16 05:36N 50°18' E 000°04'111.1
2017-Nov-16 05:28N 50°17' E 000°02'510.9
2017-Nov-16 04:58N 50°16' W 000°06'610.9
2017-Nov-16 04:25N 50°15' W 000°16'1611.1
2017-Nov-16 03:00N 50°06' W 000°36'15 9.5 260 / 141023.510.8 14.010.213.0
2017-Nov-16 01:26N 50°07' W 000°59'4 8.5
2017-Nov-16 01:00N 50°07' W 001°05'4 8.7
2017-Nov-16 00:30N 50°08' W 001°11'4 8.8
2017-Nov-16 00:00N 50°09' W 001°18'4 7.9
2017-Nov-15 23:30N 50°11' W 001°24'4 7.8
2017-Nov-15 23:00N 50°13' W 001°28'8492.4
2017-Nov-15 23:00N 50°06' W 001°24'1326.1 270 / 101027.010.8 14.5 9.713.0
2017-Nov-15 22:30N 50°19' W 001°27'1710.8
2017-Nov-15 20:58N 50°31' W 001°09'8 9.5
2017-Nov-15 20:06N 50°36' W 000°60'110.5
2017-Nov-15 20:00N 50°37' W 000°59'5 9.7
2017-Nov-15 19:31N 50°42' W 000°58'611.8
2017-Nov-15 19:01N 50°45' W 001°06'3 5.8
2017-Nov-15 18:30N 50°46' W 001°11'5 9.5
2017-Nov-15 18:00N 50°47' W 001°18'4 8.8
2017-Nov-15 17:30N 50°51' W 001°20'5 8.5
2017-Nov-15 16:58N 50°54' W 001°25'0 0.5
2017-Nov-15 16:27N 50°54' W 001°26'0 0.0
2017-Nov-15 15:57N 50°54' W 001°26'0 0.0
2017-Nov-15 15:27N 50°54' W 001°26'0 0.0
2017-Nov-15 14:57N 50°54' W 001°26'0 0.0
2017-Nov-15 14:27N 50°54' W 001°26'0 0.0
2017-Nov-15 13:57N 50°54' W 001°26'0 0.0
2017-Nov-15 13:27N 50°54' W 001°26'0 0.0
2017-Nov-15 12:57N 50°54' W 001°26'0 0.0
2017-Nov-15 12:27N 50°54' W 001°26'0 0.0
2017-Nov-15 11:57N 50°54' W 001°26'0 0.0
2017-Nov-15 11:27N 50°54' W 001°26'0 0.0
2017-Nov-15 10:57N 50°54' W 001°26'0 0.0
2017-Nov-15 10:27N 50°54' W 001°26'0 0.0
2017-Nov-15 09:57N 50°54' W 001°26'0 0.0
2017-Nov-15 09:15N 50°54' W 001°26'0 0.0
2017-Nov-15 08:51N 50°54' W 001°26'0 0.0
2017-Nov-15 08:27N 50°54' W 001°26'0 0.0
2017-Nov-15 07:57N 50°54' W 001°26'0 0.0
2017-Nov-15 07:03N 50°54' W 001°26'0 0.0
2017-Nov-15 06:51N 50°54' W 001°26'0 0.0
2017-Nov-15 06:27N 50°54' W 001°26'0 0.0
2017-Nov-15 05:57N 50°54' W 001°26'0 0.0
2017-Nov-15 05:27N 50°54' W 001°26'0 0.0
2017-Nov-15 04:57N 50°54' W 001°26'0 0.0
2017-Nov-15 04:27N 50°54' W 001°26'0 0.0
2017-Nov-15 03:57N 50°54' W 001°26'0 0.0
2017-Nov-15 03:27N 50°54' W 001°26'0 0.0
2017-Nov-15 02:45N 50°54' W 001°26'0 0.0
2017-Nov-15 02:27N 50°54' W 001°26'0 0.0
2017-Nov-15 01:57N 50°54' W 001°26'0 0.0
2017-Nov-15 01:27N 50°54' W 001°26'0 0.0
2017-Nov-15 00:57N 50°54' W 001°26'0 0.0
2017-Nov-15 00:27N 50°54' W 001°26'0 0.0
2017-Nov-14 23:57N 50°54' W 001°26'0 0.0
2017-Nov-14 23:27N 50°54' W 001°26'0 0.0
2017-Nov-14 22:51N 50°54' W 001°26'0 0.0
2017-Nov-14 22:21N 50°54' W 001°26'0 0.0
2017-Nov-14 21:45N 50°54' W 001°26'0 0.0
2017-Nov-14 21:21N 50°54' W 001°26'0 0.0
2017-Nov-14 20:03N 50°54' W 001°26'0 0.0
2017-Nov-14 19:51N 50°54' W 001°26'0 0.0
2017-Nov-14 19:27N 50°54' W 001°26'0 0.0
2017-Nov-14 18:57N 50°54' W 001°26'0 0.0
2017-Nov-14 18:09N 50°54' W 001°26'0 0.0
2017-Nov-14 17:57N 50°54' W 001°26'0 0.0
2017-Nov-14 17:27N 50°54' W 001°26'0 0.0
2017-Nov-14 16:51N 50°54' W 001°26'0 0.0
2017-Nov-14 16:27N 50°54' W 001°26'0 0.0
2017-Nov-14 15:45N 50°54' W 001°26'0 0.0
2017-Nov-14 15:27N 50°54' W 001°26'0 0.0
2017-Nov-14 14:57N 50°54' W 001°26'0 0.0
2017-Nov-14 14:21N 50°54' W 001°26'0 0.0
2017-Nov-14 13:57N 50°54' W 001°26'0 0.0
2017-Nov-14 13:27N 50°54' W 001°26'0 0.0
2017-Nov-14 12:57N 50°54' W 001°26'0 0.0
2017-Nov-14 12:03N 50°54' W 001°26'0 0.0
2017-Nov-14 12:00N 50°54' W 001°26'0 0.0
2017-Nov-14 11:30N 50°54' W 001°26'0 0.0
2017-Nov-14 10:57N 50°54' W 001°26'0 0.1
2017-Nov-14 10:30N 50°54' W 001°26'3 3.5
2017-Nov-14 09:39N 50°52' W 001°23'213.2
2017-Nov-14 09:30N 50°51' W 001°20'5 9.2
2017-Nov-14 09:00N 50°46' W 001°18'816.6
2017-Nov-14 08:30N 50°45' W 001°06'713.3
2017-Nov-14 08:01N 50°40' W 000°58'4 6.3
2017-Nov-14 07:25N 50°38' W 001°03'1 3.3
2017-Nov-14 07:00N 50°38' W 001°01'5 9.3
2017-Nov-14 06:31N 50°37' W 000°54'713.0
2017-Nov-14 05:59N 50°36' W 000°43'613.3
2017-Nov-14 05:30N 50°35' W 000°33'713.8
2017-Nov-14 05:00N 50°34' W 000°22'714.2
2017-Nov-14 04:30N 50°32' W 000°11'714.2
2017-Nov-14 04:00N 50°32' W 000°00'714.9
2017-Nov-14 03:30N 50°35' E 000°11'815.4
2017-Nov-14 03:01N 50°37' E 000°23'10563.3
2017-Nov-14 03:00N 50°30' E 000°12'1735.3 340 / 161024.810.8 10.1 2.612.3
2017-Nov-14 02:31N 50°39' E 000°35'816.4
2017-Nov-14 02:00N 50°43' E 000°46'816.3
2017-Nov-14 01:31N 50°47' E 000°57'816.4
2017-Nov-14 01:00N 50°50' E 001°09'917.3
2017-Nov-14 00:30N 50°56' E 001°19'919.0
2017-Nov-14 00:01N 51°03' E 001°29'918.1
2017-Nov-13 23:31N 51°09' E 001°40'917.4
2017-Nov-13 23:00N 51°16' E 001°48'917.5
2017-Nov-13 22:30N 51°24' E 001°53'817.0
2017-Nov-13 22:01N 51°32' E 002°00'29314.7
2017-Nov-13 02:01N 53°52' E 009°04'612.3
2017-Nov-13 01:30N 53°53' E 009°15'815.4
2017-Nov-13 01:01N 53°47' E 009°23'714.7
2017-Nov-13 00:30N 53°41' E 009°30'612.4
2017-Nov-13 00:00N 53°36' E 009°36'510.9
2017-Nov-12 23:30N 53°34' E 009°45'5 9.2
2017-Nov-12 23:01N 53°33' E 009°52'3 6.2
2017-Nov-12 22:30N 53°33' E 009°58'0 0.4
2017-Nov-12 22:00N 53°32' E 009°58'0 0.0
2017-Nov-12 21:31N 53°32' E 009°58'0 0.0
2017-Nov-12 21:00N 53°32' E 009°58'  

Dump ship's entire track history